createdAt,value
2018-12-12T00:00:08.444Z,0
2018-12-12T00:05:07.692Z,0
2018-12-12T00:10:07.817Z,0
2018-12-12T00:15:08.074Z,0
2018-12-12T00:20:07.907Z,0
2018-12-12T00:25:08.769Z,0
2018-12-12T00:30:08.088Z,0
2018-12-12T00:35:08.028Z,0
2018-12-12T00:40:07.798Z,0
2018-12-12T00:45:07.981Z,0
2018-12-12T00:50:07.842Z,0
2018-12-12T00:55:07.849Z,0
2018-12-12T01:00:08.112Z,0
2018-12-12T01:05:07.805Z,0
2018-12-12T01:10:09.166Z,0
2018-12-12T01:15:07.897Z,0
2018-12-12T01:20:07.920Z,0
2018-12-12T01:25:09.804Z,0
2018-12-12T01:30:08.681Z,0
2018-12-12T01:35:08.101Z,0
2018-12-12T01:40:11.863Z,0
2018-12-12T01:45:07.829Z,0
2018-12-12T01:50:08.320Z,0
2018-12-12T01:55:07.730Z,0
2018-12-12T02:00:08.010Z,0
2018-12-12T02:05:07.893Z,0
2018-12-12T02:10:09.122Z,0
2018-12-12T02:15:07.532Z,0
2018-12-12T02:20:08.034Z,0
2018-12-12T02:25:08.651Z,0
2018-12-12T02:30:07.597Z,0
2018-12-12T02:35:08.040Z,0
2018-12-12T02:40:07.569Z,0
2018-12-12T02:45:07.817Z,0
2018-12-12T02:50:07.862Z,0
2018-12-12T02:55:07.360Z,0
2018-12-12T03:00:07.689Z,0
2018-12-12T03:05:07.473Z,0
2018-12-12T03:10:08.894Z,0
2018-12-12T03:15:07.273Z,0
2018-12-12T03:20:07.767Z,0
2018-12-12T03:25:08.187Z,0
2018-12-12T03:30:07.397Z,0
2018-12-12T03:35:07.833Z,0
2018-12-12T03:40:08.776Z,0
2018-12-12T03:45:07.508Z,0
2018-12-12T03:50:07.764Z,0
2018-12-12T03:55:07.355Z,0
2018-12-12T04:00:07.965Z,0
2018-12-12T04:05:07.381Z,0
2018-12-12T04:10:07.640Z,0
2018-12-12T07:35:05.039Z,0
2018-12-12T07:40:02.487Z,0
2018-12-12T07:45:00.431Z,0.8
2018-12-12T07:50:05.375Z,0.8
2018-12-12T07:55:00.295Z,1.7
2018-12-12T08:00:00.339Z,2.5
2018-12-12T08:05:00.057Z,2.5
2018-12-12T08:10:00.540Z,3.3
2018-12-12T08:15:00.142Z,4.2
2018-12-12T08:20:00.370Z,5
2018-12-12T08:25:00.302Z,5.8
2018-12-12T08:30:00.368Z,7.5
2018-12-12T08:35:00.187Z,9.2
2018-12-12T08:40:00.124Z,10
2018-12-12T08:45:00.042Z,11.7
2018-12-12T08:50:00.347Z,13.3
2018-12-12T08:55:00.120Z,15
2018-12-12T09:00:00.140Z,17.5
2018-12-12T09:05:00.271Z,18.3
2018-12-12T09:10:00.213Z,19.2
2018-12-12T09:15:00.407Z,20
2018-12-12T09:20:00.296Z,18.3
2018-12-12T09:24:59.934Z,17.5
2018-12-12T09:30:00.046Z,19.2
2018-12-12T09:34:59.928Z,22.5
2018-12-12T09:39:59.952Z,26.7
2018-12-12T09:45:00.377Z,32.5
2018-12-12T09:50:00.007Z,38.3
2018-12-12T09:55:00.077Z,37.5
2018-12-12T10:00:00.068Z,35.8
2018-12-12T10:05:00.122Z,35.8
2018-12-12T10:10:00.185Z,38.3
2018-12-12T10:15:00.056Z,39.2
2018-12-12T10:20:00.092Z,40
2018-12-12T10:25:00.179Z,37.5
2018-12-12T10:30:00.481Z,38.3
2018-12-12T10:35:00.366Z,40
2018-12-12T10:39:59.915Z,40.8
2018-12-12T10:44:59.902Z,45
2018-12-12T10:50:00.336Z,46.7
2018-12-12T10:55:00.045Z,46.7
2018-12-12T11:00:00.179Z,48.3
2018-12-12T11:05:00.720Z,50
2018-12-12T11:10:00.014Z,52.5
2018-12-12T11:14:59.795Z,53.3
2018-12-12T11:20:00.188Z,55.8
2018-12-12T11:25:00.793Z,56.7
2018-12-12T11:30:00.329Z,55.8
2018-12-12T11:34:59.791Z,55.8
2018-12-12T11:40:00.203Z,54.2
2018-12-12T11:44:59.735Z,53.3
2018-12-12T11:50:00.397Z,51.7
2018-12-12T12:30:05.047Z,44.2
2018-12-12T12:35:01.095Z,43.3
2018-12-12T12:40:01.657Z,38.3
2018-12-12T12:45:01.546Z,34.2
2018-12-12T12:50:01.421Z,31.7
2018-12-12T12:55:01.454Z,29.2
2018-12-12T13:00:01.290Z,30.8
2018-12-12T13:05:01.263Z,29.2
2018-12-12T13:10:01.157Z,28.3
2018-12-12T13:15:01.340Z,28.3
2018-12-12T13:20:01.255Z,30
2018-12-12T13:25:01.327Z,27.5
2018-12-12T13:30:01.087Z,27.5
2018-12-12T13:35:01.242Z,34.2
2018-12-12T13:40:01.480Z,35.8
2018-12-12T13:45:01.315Z,35
2018-12-12T13:50:01.215Z,33.3
2018-12-12T13:55:01.281Z,30.8
2018-12-12T14:00:01.152Z,28.3
2018-12-12T14:05:01.234Z,25
2018-12-12T14:10:01.263Z,22.5
2018-12-12T14:15:01.268Z,21.7
2018-12-12T14:20:01.229Z,20.8
2018-12-12T14:25:01.129Z,18.3
2018-12-12T14:30:01.304Z,14.2
2018-12-12T14:35:01.097Z,11.7
2018-12-12T14:40:01.063Z,9.2
2018-12-12T14:45:01.105Z,8.3
2018-12-12T14:50:01.366Z,7.5
2018-12-12T14:55:01.007Z,5
2018-12-12T15:00:01.234Z,4.2
2018-12-12T15:05:00.834Z,2.5
2018-12-12T15:10:00.885Z,1.7
2018-12-12T15:15:01.124Z,1.7
2018-12-12T15:20:01.050Z,0.8
2018-12-12T15:25:02.025Z,0.8
2018-12-12T15:30:00.871Z,0
2018-12-12T15:35:00.842Z,0
2018-12-12T15:40:00.833Z,0
2018-12-12T15:45:01.137Z,0
2018-12-12T15:50:01.135Z,0
2018-12-12T15:55:01.093Z,0
2018-12-12T16:00:00.999Z,0
2018-12-12T16:05:01.610Z,0
2018-12-12T16:10:01.186Z,0
2018-12-12T16:15:01.076Z,0
2018-12-12T16:20:01.255Z,0
2018-12-12T16:25:00.799Z,0
2018-12-12T16:30:01.177Z,0
2018-12-12T16:35:01.101Z,0
2018-12-12T16:40:00.872Z,0
2018-12-12T16:45:01.291Z,0
2018-12-12T16:50:00.961Z,0
2018-12-12T16:55:01.000Z,0
2018-12-12T17:00:01.356Z,0
2018-12-12T17:05:02.349Z,0
2018-12-12T17:10:01.110Z,0
2018-12-12T17:15:01.501Z,0
2018-12-12T17:20:00.830Z,0
2018-12-12T17:25:00.796Z,0
2018-12-12T17:30:00.872Z,0
2018-12-12T17:35:01.035Z,0
2018-12-12T17:40:00.999Z,0
2018-12-12T17:45:00.626Z,0
2018-12-12T17:50:01.517Z,0
2018-12-12T17:55:00.779Z,0
2018-12-12T18:00:01.545Z,0
2018-12-12T18:05:00.853Z,0
2018-12-12T18:10:00.871Z,0
2018-12-12T18:15:01.346Z,0
2018-12-12T18:20:00.925Z,0
2018-12-12T18:25:01.938Z,0
2018-12-12T18:30:00.970Z,0
2018-12-12T18:35:00.652Z,0
2018-12-12T18:40:02.423Z,0
2018-12-12T18:45:00.872Z,0
2018-12-12T18:50:00.952Z,0
2018-12-12T18:55:02.400Z,0
2018-12-12T19:00:01.142Z,0
2018-12-12T19:05:01.157Z,0
2018-12-12T19:10:01.094Z,0
2018-12-12T19:15:01.531Z,0
2018-12-12T19:20:00.742Z,0
2018-12-12T19:25:00.702Z,0
2018-12-12T19:30:00.706Z,0
2018-12-12T19:35:00.653Z,0
2018-12-12T19:40:01.806Z,0
2018-12-12T19:45:00.699Z,0
2018-12-12T19:50:01.555Z,0
2018-12-12T19:55:00.676Z,0
2018-12-12T20:00:00.964Z,0
2018-12-12T20:05:01.380Z,0
2018-12-12T20:10:02.045Z,0
2018-12-12T20:15:00.746Z,0
2018-12-12T20:20:00.644Z,0
2018-12-12T20:25:02.933Z,0
2018-12-12T20:30:01.270Z,0
2018-12-12T20:35:00.784Z,0
2018-12-12T20:40:01.680Z,0
2018-12-12T20:45:00.839Z,0
2018-12-12T20:50:00.644Z,0
2018-12-12T20:55:00.714Z,0
2018-12-12T21:00:00.789Z,0
2018-12-12T21:05:00.692Z,0
2018-12-12T21:10:01.964Z,0
2018-12-12T21:15:00.747Z,0
2018-12-12T21:20:00.884Z,0
2018-12-12T21:25:00.565Z,0
2018-12-12T21:30:00.492Z,0
2018-12-12T21:35:00.511Z,0
2018-12-12T21:40:02.346Z,0
2018-12-12T21:45:00.515Z,0
2018-12-12T21:50:00.829Z,0
2018-12-12T21:55:00.453Z,0
2018-12-12T22:00:00.946Z,0
2018-12-12T22:05:00.689Z,0
2018-12-12T22:10:00.549Z,0
2018-12-12T22:15:00.865Z,0
2018-12-12T22:20:00.432Z,0
2018-12-12T22:25:00.579Z,0
2018-12-12T22:30:00.989Z,0
2018-12-12T22:35:00.568Z,0
2018-12-12T22:40:00.495Z,0
2018-12-12T22:45:00.526Z,0
2018-12-12T22:50:00.545Z,0
2018-12-12T22:55:02.398Z,0
2018-12-12T23:00:01.280Z,0
2018-12-12T23:05:00.809Z,0
2018-12-12T23:10:01.274Z,0
2018-12-12T23:15:01.099Z,0
2018-12-12T23:20:00.546Z,0
2018-12-12T23:25:00.337Z,0
2018-12-12T23:30:02.700Z,0
2018-12-12T23:35:00.401Z,0
2018-12-12T23:40:00.767Z,0
2018-12-12T23:45:00.378Z,0
2018-12-12T23:50:00.646Z,0
2018-12-12T23:55:03.629Z,0
